createdAt,value
2023-02-19T00:01:55.653Z,56.90
2023-02-19T00:04:23.945Z,51.67
2023-02-19T00:06:53.527Z,58.97
2023-02-19T00:09:22.154Z,50.60
2023-02-19T00:11:53.649Z,57.20
2023-02-19T00:14:24.853Z,49.95
2023-02-19T00:16:53.080Z,45.60
2023-02-19T00:19:24.222Z,58.40
2023-02-19T00:21:54.996Z,44.42
2023-02-19T00:24:23.653Z,59.00
2023-02-19T00:26:51.839Z,51.38
2023-02-19T00:29:22.680Z,46.72
2023-02-19T00:31:51.063Z,56.63
2023-02-19T00:34:19.667Z,44.05
2023-02-19T00:36:47.906Z,47.42
2023-02-19T00:39:18.884Z,47.90
2023-02-19T00:41:47.398Z,50.15
2023-02-19T00:44:16.380Z,51.95
2023-02-19T00:46:46.978Z,41.55
2023-02-19T00:49:19.572Z,39.95
2023-02-19T00:51:48.278Z,48.00
2023-02-19T00:54:18.754Z,44.20
2023-02-19T00:56:47.535Z,35.42
2023-02-19T00:59:15.987Z,31.63
2023-02-19T01:01:45.550Z,34.03
2023-02-19T01:04:16.488Z,29.63
2023-02-19T01:06:44.977Z,36.35
2023-02-19T01:09:13.682Z,30.83
2023-02-19T01:11:43.365Z,36.65
2023-02-19T01:14:14.334Z,41.05
2023-02-19T01:16:42.707Z,31.73
2023-02-19T01:19:11.266Z,36.28
2023-02-19T01:21:42.274Z,31.08
2023-02-19T01:24:10.722Z,30.48
2023-02-19T01:26:38.932Z,44.38
2023-02-19T01:29:08.571Z,24.90
2023-02-19T01:31:37.864Z,30.25
2023-02-19T01:34:06.472Z,27.55
2023-02-19T01:36:36.850Z,25.67
2023-02-19T01:39:07.716Z,22.35
2023-02-19T01:41:39.616Z,30.98
2023-02-19T01:44:59.901Z,30.45
2023-02-19T01:47:29.458Z,21.85
2023-02-19T01:49:58.831Z,24.67
2023-02-19T01:52:32.754Z,27.30
2023-02-19T01:55:03.808Z,16.75
2023-02-19T01:57:39.018Z,19.63
2023-02-19T02:00:13.251Z,21.55
2023-02-19T02:02:47.763Z,25.02
2023-02-19T02:05:25.090Z,18.55
2023-02-19T02:08:11.698Z,23.25
2023-02-19T02:10:41.589Z,19.52
2023-02-19T02:13:09.868Z,17.45
2023-02-19T02:15:45.572Z,31.00
2023-02-19T02:18:27.443Z,33.13
2023-02-19T02:21:24.633Z,19.65
2023-02-19T02:24:12.865Z,19.70
2023-02-19T02:27:00.706Z,26.92
2023-02-19T02:30:04.351Z,20.20
2023-02-19T02:32:36.894Z,24.08
2023-02-19T02:35:12.447Z,19.90
2023-02-19T02:37:43.763Z,25.05
2023-02-19T02:40:14.108Z,26.52
2023-02-19T02:42:43.881Z,21.75
2023-02-19T02:45:36.005Z,25.55
2023-02-19T02:48:25.933Z,22.83
2023-02-19T02:50:57.867Z,19.40
2023-02-19T02:53:51.258Z,34.35
2023-02-19T02:56:20.883Z,25.63
2023-02-19T02:58:51.139Z,22.23
2023-02-19T03:01:43.103Z,23.08
2023-02-19T03:04:19.651Z,20.58
2023-02-19T03:06:48.943Z,26.27
2023-02-19T03:09:23.472Z,22.40
2023-02-19T03:12:11.535Z,22.75
2023-02-19T03:15:04.056Z,25.85
2023-02-19T03:17:57.217Z,29.23
2023-02-19T03:20:26.453Z,28.25
2023-02-19T03:22:57.248Z,28.17
2023-02-19T03:25:47.165Z,25.77
2023-02-19T03:28:18.963Z,24.27
2023-02-19T03:30:51.625Z,31.73
2023-02-19T03:33:26.133Z,26.70
2023-02-19T03:35:59.683Z,24.15
2023-02-19T03:38:38.863Z,20.15
2023-02-19T03:41:12.727Z,16.67
2023-02-19T03:43:49.850Z,34.58
2023-02-19T03:46:24.804Z,27.25
2023-02-19T03:48:59.359Z,19.48
2023-02-19T03:51:39.078Z,22.52
2023-02-19T03:54:16.617Z,21.33
2023-02-19T03:56:51.001Z,24.33
2023-02-19T03:59:25.206Z,20.33
2023-02-19T04:01:57.798Z,21.25
2023-02-19T04:04:31.701Z,21.92
2023-02-19T04:07:00.375Z,19.45
2023-02-19T04:09:34.908Z,18.23
2023-02-19T04:12:04.384Z,26.10
2023-02-19T04:14:40.031Z,19.67
2023-02-19T04:17:12.756Z,28.90
2023-02-19T04:19:44.062Z,19.25
2023-02-19T04:22:15.756Z,16.70
2023-02-19T04:24:52.366Z,21.00
2023-02-19T04:27:21.036Z,18.40
2023-02-19T04:29:49.478Z,16.75
2023-02-19T04:32:17.807Z,20.20
2023-02-19T04:34:47.412Z,23.80
2023-02-19T04:37:15.707Z,19.80
2023-02-19T04:39:43.989Z,24.20
2023-02-19T04:42:12.536Z,22.70
2023-02-19T04:44:40.750Z,22.08
2023-02-19T04:47:11.532Z,15.75
2023-02-19T04:49:39.900Z,24.42
2023-02-19T04:52:11.786Z,23.23
2023-02-19T04:54:40.033Z,18.50
2023-02-19T04:57:08.307Z,17.23
2023-02-19T04:59:38.984Z,18.88
2023-02-19T05:02:07.278Z,19.17
2023-02-19T05:04:35.769Z,26.17
2023-02-19T05:07:03.949Z,26.05
2023-02-19T05:09:33.477Z,18.73
2023-02-19T05:12:01.784Z,19.33
2023-02-19T05:14:37.151Z,16.08
2023-02-19T05:17:05.450Z,19.42
2023-02-19T05:19:33.756Z,17.77
2023-02-19T05:22:01.973Z,21.35
2023-02-19T05:24:31.550Z,18.75
2023-02-19T05:27:02.413Z,22.15
2023-02-19T05:29:35.114Z,15.82
2023-02-19T05:32:03.369Z,18.20
2023-02-19T05:34:31.629Z,16.52
2023-02-19T05:36:59.851Z,18.75
2023-02-19T05:39:28.136Z,18.52
2023-02-19T05:41:56.371Z,18.40
2023-02-19T05:44:26.181Z,10.75
2023-02-19T05:46:56.348Z,12.05
2023-02-19T05:49:24.557Z,17.00
2023-02-19T05:51:52.811Z,17.10
2023-02-19T05:54:21.066Z,16.15
2023-02-19T05:56:49.274Z,16.17
2023-02-19T05:59:20.076Z,12.90
2023-02-19T06:01:51.246Z,14.52
2023-02-19T06:04:20.439Z,16.15
2023-02-19T06:06:49.422Z,17.52
2023-02-19T06:09:20.556Z,23.23
2023-02-19T06:11:48.752Z,19.20
2023-02-19T06:14:16.923Z,17.60
2023-02-19T06:16:45.353Z,11.30
2023-02-19T06:19:14.981Z,15.52
2023-02-19T06:21:43.788Z,13.82
2023-02-19T06:24:12.042Z,16.20
2023-02-19T06:26:40.276Z,11.43
2023-02-19T06:29:08.861Z,17.13
2023-02-19T06:31:37.128Z,19.40
2023-02-19T06:34:06.088Z,14.40
2023-02-19T06:36:36.179Z,20.08
2023-02-19T06:39:06.327Z,17.48
2023-02-19T06:41:34.996Z,16.35
2023-02-19T06:44:03.254Z,17.67
2023-02-19T06:46:31.541Z,21.92
2023-02-19T06:49:04.579Z,25.98
2023-02-19T06:51:33.041Z,20.48
2023-02-19T06:54:03.309Z,23.73
2023-02-19T06:56:33.813Z,29.83
2023-02-19T06:59:03.948Z,21.58
2023-02-19T07:01:34.868Z,24.17
2023-02-19T07:04:03.830Z,21.25
2023-02-19T07:06:32.502Z,24.98
2023-02-19T07:09:03.165Z,24.30
2023-02-19T07:11:34.138Z,23.08
2023-02-19T07:14:05.222Z,24.30
2023-02-19T07:16:33.463Z,26.00
2023-02-19T07:19:02.506Z,19.63
2023-02-19T07:21:31.436Z,19.92
2023-02-19T07:23:59.741Z,18.60
2023-02-19T07:26:33.116Z,20.25
2023-02-19T07:29:01.852Z,23.23
2023-02-19T07:31:30.560Z,19.80
2023-02-19T07:34:01.046Z,16.10
2023-02-19T07:36:29.388Z,26.10
2023-02-19T07:38:58.827Z,17.35
2023-02-19T07:41:29.200Z,23.77
2023-02-19T07:43:57.535Z,16.27
2023-02-19T07:46:26.060Z,20.35
2023-02-19T07:48:56.214Z,17.25
2023-02-19T07:51:24.677Z,16.80
2023-02-19T07:53:53.478Z,18.42
2023-02-19T07:56:22.448Z,15.38
2023-02-19T07:58:52.056Z,19.58
2023-02-19T08:01:44.225Z,23.10
2023-02-19T08:04:16.564Z,14.13
2023-02-19T08:06:45.146Z,19.08
2023-02-19T08:09:13.417Z,12.65
2023-02-19T08:11:59.075Z,15.88
2023-02-19T08:14:30.263Z,13.05
2023-02-19T08:16:58.505Z,14.88
2023-02-19T08:19:26.895Z,21.35
2023-02-19T08:21:55.201Z,18.75
2023-02-19T08:24:23.476Z,22.27
2023-02-19T08:26:51.742Z,18.40
2023-02-19T08:29:20.338Z,21.52
2023-02-19T08:31:50.089Z,20.13
2023-02-19T08:34:18.640Z,13.60
2023-02-19T08:36:46.901Z,14.32
2023-02-19T08:39:15.219Z,17.48
2023-02-19T08:41:43.782Z,13.55
2023-02-19T08:44:12.007Z,13.63
2023-02-19T08:46:42.330Z,18.67
2023-02-19T08:49:16.485Z,23.77
2023-02-19T08:51:44.930Z,17.65
2023-02-19T08:54:13.197Z,15.15
2023-02-19T08:56:41.491Z,16.98
2023-02-19T08:59:11.757Z,18.45
2023-02-19T09:01:40.128Z,17.02
2023-02-19T09:04:11.467Z,16.63
2023-02-19T09:06:40.178Z,16.63
2023-02-19T09:09:08.438Z,19.52
2023-02-19T09:11:36.666Z,15.43
2023-02-19T09:14:07.473Z,15.20
2023-02-19T09:16:44.300Z,20.80
2023-02-19T09:19:13.932Z,19.00
2023-02-19T09:21:44.009Z,17.15
2023-02-19T09:24:15.193Z,15.90
2023-02-19T09:26:43.446Z,14.23
2023-02-19T09:29:15.439Z,16.65
2023-02-19T09:31:43.964Z,15.80
2023-02-19T09:34:16.675Z,16.00
2023-02-19T09:36:45.194Z,14.25
2023-02-19T09:39:13.424Z,15.50
2023-02-19T09:41:47.970Z,17.08
2023-02-19T09:44:30.937Z,19.60
2023-02-19T09:47:01.574Z,15.50
2023-02-19T09:49:36.932Z,13.70
2023-02-19T09:52:13.385Z,13.93
2023-02-19T09:54:42.293Z,12.73
2023-02-19T09:57:17.165Z,12.68
2023-02-19T09:59:50.649Z,11.38
2023-02-19T10:02:22.276Z,12.02
2023-02-19T10:04:53.669Z,7.68
2023-02-19T10:07:25.642Z,12.13
2023-02-19T10:09:58.736Z,15.07
2023-02-19T10:12:30.066Z,9.52
2023-02-19T10:15:05.765Z,11.43
2023-02-19T10:17:35.618Z,9.50
2023-02-19T10:20:14.723Z,10.88
2023-02-19T10:22:43.529Z,8.65
2023-02-19T10:25:15.229Z,10.02
2023-02-19T10:27:44.295Z,9.18
2023-02-19T10:30:22.986Z,12.50
2023-02-19T10:33:02.905Z,12.55
2023-02-19T10:35:36.606Z,13.63
2023-02-19T10:38:08.344Z,7.43
2023-02-19T10:40:36.620Z,10.05
2023-02-19T10:43:06.420Z,15.40
2023-02-19T10:45:45.435Z,10.13
2023-02-19T10:48:25.676Z,7.53
2023-02-19T10:51:04.881Z,9.35
2023-02-19T10:53:47.093Z,6.80
2023-02-19T10:56:18.210Z,9.98
2023-02-19T10:58:47.337Z,7.70
2023-02-19T11:01:21.729Z,8.73
2023-02-19T11:03:52.186Z,5.07
2023-02-19T11:06:23.280Z,8.75
2023-02-19T11:08:58.777Z,7.13
2023-02-19T11:11:34.362Z,6.22
2023-02-19T11:14:12.878Z,6.20
2023-02-19T11:16:45.311Z,9.05
2023-02-19T11:19:36.489Z,13.32
2023-02-19T11:22:22.097Z,5.75
2023-02-19T11:24:55.436Z,7.43
2023-02-19T11:27:26.385Z,7.47
2023-02-19T11:29:57.089Z,8.43
2023-02-19T11:32:29.665Z,10.73
2023-02-19T11:35:19.650Z,10.63
2023-02-19T11:38:02.615Z,5.68
2023-02-19T11:40:42.633Z,7.82
2023-02-19T11:43:35.989Z,8.18
2023-02-19T11:46:11.215Z,8.90
2023-02-19T11:48:55.238Z,9.38
2023-02-19T11:51:56.797Z,7.25
2023-02-19T11:54:49.234Z,8.30
2023-02-19T11:57:38.419Z,11.57
2023-02-19T12:00:24.868Z,5.82
2023-02-19T12:03:42.931Z,7.75
2023-02-19T12:06:25.486Z,11.65
2023-02-19T12:09:26.704Z,10.18
2023-02-19T12:12:21.702Z,10.38
2023-02-19T12:15:44.018Z,8.23
2023-02-19T12:19:01.121Z,7.68
2023-02-19T12:21:56.190Z,6.68
2023-02-19T12:25:12.256Z,6.15
2023-02-19T12:27:59.434Z,5.55
2023-02-19T12:31:06.287Z,6.28
2023-02-19T12:34:09.641Z,5.97
2023-02-19T12:36:50.975Z,5.03
2023-02-19T12:39:30.526Z,4.85
2023-02-19T12:42:07.455Z,5.72
2023-02-19T12:44:44.121Z,6.22
2023-02-19T12:47:19.693Z,7.40
2023-02-19T12:49:56.288Z,7.00
2023-02-19T12:52:28.327Z,9.77
2023-02-19T12:55:03.554Z,12.45
2023-02-19T12:57:36.050Z,12.88
2023-02-19T13:00:22.174Z,13.05
2023-02-19T13:02:59.710Z,9.10
2023-02-19T13:05:45.474Z,11.15
2023-02-19T13:08:20.667Z,8.38
2023-02-19T13:10:56.756Z,8.18
2023-02-19T13:13:32.687Z,9.00
2023-02-19T13:16:11.322Z,11.82
2023-02-19T13:18:45.764Z,12.07
2023-02-19T13:21:35.733Z,12.13
2023-02-19T13:24:07.565Z,8.05
2023-02-19T13:27:02.250Z,6.72
2023-02-19T13:29:54.956Z,4.40
2023-02-19T13:32:51.752Z,6.05
2023-02-19T13:36:01.550Z,8.70
2023-02-19T13:38:30.178Z,3.50
2023-02-19T13:41:00.137Z,4.15
2023-02-19T13:43:34.810Z,3.45
2023-02-19T13:46:06.755Z,6.50
2023-02-19T13:48:38.398Z,4.70
2023-02-19T13:51:58.661Z,3.53
2023-02-19T13:54:29.753Z,4.75
2023-02-19T13:57:30.528Z,3.15
2023-02-19T14:00:00.199Z,3.22
2023-02-19T14:02:34.014Z,3.67
2023-02-19T14:05:07.877Z,2.85
2023-02-19T14:07:59.106Z,4.22
2023-02-19T14:11:02.037Z,2.92
2023-02-19T14:14:25.901Z,4.05
2023-02-19T14:17:01.318Z,2.58
2023-02-19T14:20:11.699Z,3.72
2023-02-19T14:23:16.588Z,3.55
2023-02-19T14:25:53.724Z,2.30
2023-02-19T14:28:35.202Z,2.70
2023-02-19T14:31:26.776Z,2.78
2023-02-19T14:33:57.460Z,2.17
2023-02-19T14:36:36.602Z,3.10
2023-02-19T14:39:14.367Z,2.15
2023-02-19T14:41:49.809Z,3.53
2023-02-19T14:44:25.806Z,3.65
2023-02-19T14:47:00.465Z,3.75
2023-02-19T14:49:43.686Z,4.20
2023-02-19T14:52:21.378Z,3.78
2023-02-19T14:54:55.307Z,3.45
2023-02-19T14:57:28.513Z,5.10
2023-02-19T14:59:59.099Z,3.25
2023-02-19T15:02:28.857Z,5.65
2023-02-19T15:05:00.514Z,2.08
2023-02-19T15:07:33.917Z,2.67
2023-02-19T15:10:05.821Z,3.22
2023-02-19T15:12:37.213Z,1.50
2023-02-19T15:15:11.239Z,2.35
2023-02-19T15:17:41.822Z,3.20
2023-02-19T15:20:14.130Z,2.50
2023-02-19T15:22:44.042Z,0.70
2023-02-19T15:25:18.946Z,1.77
2023-02-19T15:27:47.805Z,2.03
2023-02-19T15:30:24.685Z,2.55
2023-02-19T15:32:54.702Z,1.88
2023-02-19T15:35:25.155Z,2.58
2023-02-19T15:37:56.542Z,2.72
2023-02-19T15:40:30.783Z,3.67
2023-02-19T15:43:01.895Z,4.47
2023-02-19T15:45:40.729Z,2.45
2023-02-19T15:48:13.692Z,3.65
2023-02-19T15:50:46.310Z,3.00
2023-02-19T15:53:20.880Z,2.35
2023-02-19T15:55:56.536Z,2.65
2023-02-19T15:58:32.419Z,3.83
2023-02-19T16:01:05.873Z,1.65
2023-02-19T16:03:34.890Z,2.22
2023-02-19T16:06:06.078Z,3.65
2023-02-19T16:08:38.469Z,2.65
2023-02-19T16:11:30.147Z,2.58
2023-02-19T16:14:19.438Z,3.63
2023-02-19T16:16:50.317Z,3.00
2023-02-19T16:19:23.570Z,2.25
2023-02-19T16:21:52.481Z,2.83
2023-02-19T16:24:29.898Z,4.30
2023-02-19T16:27:00.281Z,3.63
2023-02-19T16:29:32.319Z,4.50
2023-02-19T16:32:03.990Z,4.05
2023-02-19T16:34:41.961Z,3.03
2023-02-19T16:37:37.273Z,3.38
2023-02-19T16:40:59.976Z,2.78
2023-02-19T16:43:41.789Z,2.67
2023-02-19T16:46:14.144Z,4.53
2023-02-19T16:48:42.732Z,3.42
2023-02-19T16:51:19.394Z,7.10
2023-02-19T16:53:47.705Z,2.28
2023-02-19T16:56:23.040Z,4.50
2023-02-19T16:58:53.367Z,3.47
2023-02-19T17:01:21.911Z,3.00
2023-02-19T17:03:50.711Z,4.03
2023-02-19T17:06:19.263Z,3.60
2023-02-19T17:08:49.613Z,4.07
2023-02-19T17:11:19.335Z,5.07
2023-02-19T17:13:52.160Z,4.72
2023-02-19T17:16:25.003Z,4.35
2023-02-19T17:18:56.754Z,4.35
2023-02-19T17:21:35.077Z,5.45
2023-02-19T17:24:06.605Z,6.30
2023-02-19T17:26:35.069Z,4.72
2023-02-19T17:29:08.545Z,4.00
2023-02-19T17:31:38.082Z,4.30
2023-02-19T17:34:06.366Z,4.10
2023-02-19T17:36:34.652Z,5.65
2023-02-19T17:39:08.545Z,5.40
2023-02-19T17:41:37.051Z,7.30
2023-02-19T17:44:06.790Z,6.47
2023-02-19T17:46:35.109Z,8.40
2023-02-19T17:49:03.689Z,9.32
2023-02-19T17:51:34.435Z,6.13
2023-02-19T17:54:02.893Z,6.95
2023-02-19T17:56:31.417Z,6.65
2023-02-19T17:59:01.017Z,6.97
2023-02-19T18:01:32.635Z,5.80
2023-02-19T18:04:00.975Z,7.07
2023-02-19T18:06:29.197Z,6.80
2023-02-19T18:09:00.588Z,5.32
2023-02-19T18:11:28.917Z,8.85
2023-02-19T18:13:59.644Z,6.40
2023-02-19T18:16:28.066Z,4.45
2023-02-19T18:18:58.401Z,4.63
2023-02-19T18:21:26.944Z,3.67
2023-02-19T18:23:55.886Z,4.35
2023-02-19T18:26:24.683Z,4.63
2023-02-19T18:28:53.688Z,2.95
2023-02-19T18:31:22.279Z,4.43
2023-02-19T18:33:51.783Z,6.13
2023-02-19T18:36:21.624Z,3.72
2023-02-19T18:38:51.167Z,3.97
2023-02-19T18:41:21.038Z,9.23
2023-02-19T18:43:49.648Z,8.10
2023-02-19T18:46:25.530Z,7.03
2023-02-19T18:48:53.812Z,5.15
2023-02-19T18:51:24.525Z,4.50
2023-02-19T18:53:52.766Z,5.25
2023-02-19T18:56:21.206Z,8.07
2023-02-19T18:58:52.238Z,3.13
2023-02-19T19:01:20.649Z,7.65
2023-02-19T19:03:48.940Z,6.95
2023-02-19T19:06:17.168Z,5.25
2023-02-19T19:08:46.827Z,6.60
2023-02-19T19:11:17.001Z,6.70
2023-02-19T19:13:46.950Z,7.28
2023-02-19T19:16:15.513Z,6.43
2023-02-19T19:18:44.010Z,8.75
2023-02-19T19:21:17.784Z,8.80
2023-02-19T19:23:48.034Z,9.13
2023-02-19T19:26:17.913Z,9.90
2023-02-19T19:28:46.524Z,8.15
2023-02-19T19:31:16.902Z,13.07
2023-02-19T19:33:47.682Z,5.38
2023-02-19T19:36:20.421Z,11.00
2023-02-19T19:38:50.421Z,10.48
2023-02-19T19:41:20.892Z,12.95
2023-02-19T19:43:49.617Z,5.47
2023-02-19T19:46:19.889Z,12.27
2023-02-19T19:48:49.637Z,10.60
2023-02-19T19:51:18.833Z,9.90
2023-02-19T19:53:51.168Z,10.27
2023-02-19T19:56:19.804Z,10.73
2023-02-19T19:58:49.581Z,8.75
2023-02-19T20:01:21.072Z,7.70
2023-02-19T20:03:51.040Z,7.90
2023-02-19T20:06:27.320Z,9.93
2023-02-19T20:08:57.214Z,13.98
2023-02-19T20:11:25.929Z,12.52
2023-02-19T20:14:01.824Z,9.98
2023-02-19T20:16:30.452Z,14.98
2023-02-19T20:19:01.295Z,15.40
2023-02-19T20:21:31.871Z,11.00
2023-02-19T20:24:01.852Z,10.55
2023-02-19T20:26:31.898Z,10.43
2023-02-19T20:29:00.482Z,12.05
2023-02-19T20:31:28.975Z,13.65
2023-02-19T20:34:00.159Z,8.73
2023-02-19T20:36:29.494Z,9.48
2023-02-19T20:38:57.935Z,10.98
2023-02-19T20:41:27.560Z,8.65
2023-02-19T20:43:56.128Z,12.32
2023-02-19T20:46:24.919Z,13.45
2023-02-19T20:48:55.030Z,10.38
2023-02-19T20:51:23.827Z,11.45
2023-02-19T20:53:53.946Z,13.95
2023-02-19T20:56:22.218Z,13.05
2023-02-19T20:58:52.311Z,13.18
2023-02-19T21:01:27.629Z,14.15
2023-02-19T21:03:56.056Z,9.60
2023-02-19T21:06:24.618Z,12.55
2023-02-19T21:08:53.057Z,10.60
2023-02-19T21:11:21.245Z,10.00
2023-02-19T21:13:51.339Z,11.23
2023-02-19T21:16:20.155Z,11.27
2023-02-19T21:18:48.390Z,11.65
2023-02-19T21:21:20.210Z,16.13
2023-02-19T21:23:48.904Z,15.40
2023-02-19T21:26:17.332Z,17.42
2023-02-19T21:28:46.425Z,14.70
2023-02-19T21:31:16.302Z,11.48
2023-02-19T21:33:45.129Z,17.33
2023-02-19T21:36:14.125Z,14.70
2023-02-19T21:38:45.996Z,12.77
2023-02-19T21:41:14.280Z,15.18
2023-02-19T21:43:42.758Z,15.48
2023-02-19T21:46:11.290Z,12.88
2023-02-19T21:48:41.115Z,14.68
2023-02-19T21:51:09.514Z,16.95
2023-02-19T21:53:37.754Z,14.82
2023-02-19T21:56:06.933Z,15.93
2023-02-19T21:58:35.160Z,16.88
2023-02-19T22:01:03.503Z,15.82
2023-02-19T22:03:31.694Z,17.25
2023-02-19T22:06:03.150Z,14.15
2023-02-19T22:08:31.392Z,17.27
2023-02-19T22:10:59.654Z,15.98
2023-02-19T22:13:27.890Z,16.38
2023-02-19T22:15:56.162Z,16.13
2023-02-19T22:18:24.743Z,16.52
2023-02-19T22:20:53.029Z,12.20
2023-02-19T22:23:22.664Z,17.70
2023-02-19T22:25:50.925Z,19.42
2023-02-19T22:28:19.251Z,16.08
2023-02-19T22:30:47.669Z,19.50
2023-02-19T22:33:16.031Z,17.30
2023-02-19T22:35:44.399Z,16.23
2023-02-19T22:38:12.638Z,16.98
2023-02-19T22:40:42.847Z,18.48
2023-02-19T22:43:11.499Z,18.80
2023-02-19T22:45:39.715Z,15.38
2023-02-19T22:48:08.366Z,17.63
2023-02-19T22:50:36.857Z,15.73
2023-02-19T22:53:05.468Z,16.90
2023-02-19T22:55:35.686Z,17.90
2023-02-19T22:58:05.195Z,18.63
2023-02-19T23:00:33.382Z,20.67
2023-02-19T23:03:03.197Z,22.00
2023-02-19T23:05:32.327Z,17.10
2023-02-19T23:08:00.518Z,19.23
2023-02-19T23:10:28.737Z,19.48
2023-02-19T23:12:59.841Z,18.27
2023-02-19T23:15:30.578Z,14.80
2023-02-19T23:17:59.865Z,19.02
2023-02-19T23:20:28.120Z,15.00
2023-02-19T23:22:59.039Z,16.35
2023-02-19T23:25:27.750Z,13.52
2023-02-19T23:27:56.007Z,12.35
2023-02-19T23:30:24.808Z,25.40
2023-02-19T23:32:54.608Z,17.30
2023-02-19T23:35:23.425Z,23.20
2023-02-19T23:37:51.674Z,15.30
2023-02-19T23:40:20.170Z,15.93
2023-02-19T23:42:48.397Z,15.27
2023-02-19T23:45:17.818Z,18.95
2023-02-19T23:47:46.525Z,18.55
2023-02-19T23:50:18.753Z,18.92
2023-02-19T23:52:47.014Z,18.63
2023-02-19T23:55:15.355Z,16.58
2023-02-19T23:57:44.107Z,24.80
